CDT,Max TemperatureF,Mean TemperatureF,Min TemperatureF,Max Dew PointF,MeanDew PointF,Min DewpointF,Max Humidity, Mean Humidity, Min Humidity, Max Sea Level PressureIn, Mean Sea Level PressureIn, Min Sea Level PressureIn, Max VisibilityMiles, Mean VisibilityMiles, Min VisibilityMiles, Max Wind SpeedMPH, Mean Wind SpeedMPH, Max Gust SpeedMPH,PrecipitationIn, CloudCover, Events, WindDirDegrees
2013-3-1,30,26,23,19,18,14,80,74,64,30.31,30.23,30.15,10,9,3,15,11,20,0.00,8,Snow,346
2013-3-2,28,24,19,18,15,12,80,71,59,30.32,30.26,30.15,10,10,10,10,6,9,0.00,7,,339
2013-3-3,35,26,17,21,18,12,86,68,56,30.14,29.96,29.82,10,10,7,22,9,24,0.00,3,,127
2013-3-4,39,34,28,30,26,19,87,73,64,29.94,29.80,29.73,10,9,1,22,13,25,0.02,3,Snow,96
2013-3-5,33,28,24,28,21,16,87,75,69,30.30,30.09,29.94,10,8,1,32,18,41,0.00,7,Snow,304
2013-3-6,30,26,21,21,18,16,86,73,64,30.41,30.35,30.29,10,10,7,17,9,21,0.00,5,,353
2013-3-7,37,27,17,27,20,12,93,76,60,30.31,30.26,30.19,10,9,4,18,10,21,0.00,0,,115
2013-3-8,44,35,26,34,28,21,87,73,61,30.24,30.15,29.99,10,9,5,20,12,23,0.04,2,Rain,127
2013-3-9,46,42,37,45,37,34,93,87,81,29.97,29.77,29.61,10,4,0,24,15,32,0.44,8,Fog-Rain,148
2013-3-10,41,34,26,39,30,21,93,87,80,29.81,29.71,29.62,10,4,0,25,15,34,0.11,8,Fog-Rain-Snow,353
2013-3-11,28,24,19,21,19,16,86,78,69,29.97,29.85,29.76,10,8,2,22,16,30,0.00,6,Snow,300
2013-3-12,33,25,17,25,19,14,86,76,64,30.27,30.10,29.96,10,10,2,28,13,39,0.00,4,Snow,288
2013-3-13,37,26,15,27,18,10,86,71,52,30.44,30.36,30.27,10,10,10,13,6,17,0.00,1,,308
2013-3-14,53,42,30,39,30,21,87,67,50,30.28,30.12,30.08,10,10,5,16,7,,0.00,1,Rain,206
2013-3-15,62,46,30,45,37,28,93,74,48,30.08,29.84,29.71,10,7,0,16,2,21,0.00,0,Fog,264
2013-3-16,37,32,26,34,26,21,93,78,65,30.17,30.02,29.80,10,9,0,24,16,32,0.00,8,,2
2013-3-17,39,32,24,28,23,18,81,71,56,30.16,29.98,29.79,10,10,10,20,15,26,0.00,4,,88
2013-3-18,35,30,24,30,22,12,93,69,47,30.01,29.84,29.73,10,7,0,37,10,50,0.11,4,Snow,284
2013-3-19,44,30,17,21,13,5,80,54,21,30.24,30.13,30.01,10,10,10,15,9,22,0.00,1,,299
2013-3-20,30,22,15,19,7,0,74,54,31,30.34,30.25,30.12,10,10,7,23,15,29,0.00,2,Snow,317
2013-3-21,33,24,14,16,10,3,79,57,30,30.11,30.01,29.93,10,10,10,12,5,16,0.00,3,,86
2013-3-22,35,27,19,21,16,12,86,64,38,30.04,30.00,29.97,10,10,7,12,6,,0.00,5,,75
2013-3-23,35,30,26,27,22,18,93,71,48,30.11,30.04,29.99,10,8,1,17,8,23,0.00,7,Snow,33
2013-3-24,28,26,24,25,22,19,86,82,74,30.01,29.95,29.91,10,3,1,22,16,29,0.00,8,Snow,334
2013-3-25,32,28,24,25,21,18,93,75,55,30.27,30.12,29.98,10,7,2,23,16,28,0.00,7,Snow,319
2013-3-26,35,27,19,21,18,12,80,67,48,30.36,30.30,30.26,10,10,10,14,8,18,0.00,3,,313
2013-3-27,48,34,21,27,23,16,86,65,40,30.32,30.28,30.22,10,10,7,14,3,17,0.00,1,,135
2013-3-28,57,42,28,34,28,23,86,62,31,30.28,30.24,30.18,10,10,7,15,4,17,0.00,1,,107
2013-3-29,64,48,33,36,29,21,87,54,19,30.26,30.19,30.11,10,9,2,13,3,17,0.00,0,,130
2013-3-30,62,53,44,52,41,32,87,71,55,30.11,29.97,29.87,10,10,5,15,7,22,0.17,5,Rain,169
2013-3-31,55,44,32,37,29,12,87,62,19,30.10,29.96,29.92,10,9,2,26,8,33,0.00,2,Rain-Snow,324